createdAt,value
2018-06-03T00:00:31.537Z,0.00
2018-06-03T00:01:31.500Z,0.00
2018-06-03T00:02:31.488Z,0.00
2018-06-03T00:03:31.425Z,0.00
2018-06-03T00:04:31.400Z,0.00
2018-06-03T00:05:31.362Z,0.00
2018-06-03T00:06:31.325Z,0.00
2018-06-03T00:07:31.310Z,0.00
2018-06-03T00:08:31.248Z,0.00
2018-06-03T00:09:31.206Z,0.00
2018-06-03T00:10:31.170Z,0.00
2018-06-03T00:11:31.142Z,0.00
2018-06-03T00:12:31.121Z,0.00
2018-06-03T00:13:31.068Z,0.00
2018-06-03T00:14:31.020Z,0.00
2018-06-03T00:15:41.428Z,0.00
2018-06-03T00:16:30.939Z,0.00
2018-06-03T00:17:30.925Z,0.00
2018-06-03T00:18:30.864Z,0.00
2018-06-03T00:19:30.843Z,0.00
2018-06-03T00:20:30.787Z,0.00
2018-06-03T00:21:30.744Z,0.00
2018-06-03T00:22:30.744Z,0.00
2018-06-03T00:23:30.681Z,0.00
2018-06-03T00:24:30.671Z,0.00
2018-06-03T00:25:30.597Z,0.00
2018-06-03T00:26:30.566Z,0.00
2018-06-03T00:27:30.550Z,0.00
2018-06-03T00:28:30.493Z,0.00
2018-06-03T00:29:30.470Z,0.00
2018-06-03T00:30:30.418Z,0.00
2018-06-03T00:31:30.394Z,0.00
2018-06-03T00:32:30.365Z,0.00
2018-06-03T00:33:30.316Z,0.00
2018-06-03T00:34:30.259Z,0.00
2018-06-03T00:35:30.234Z,0.00
2018-06-03T00:36:30.222Z,0.00
2018-06-03T00:37:30.153Z,0.00
2018-06-03T00:38:30.110Z,0.00
2018-06-03T00:39:41.440Z,0.00
2018-06-03T00:40:30.068Z,0.00
2018-06-03T00:41:30.003Z,0.00
2018-06-03T00:42:29.980Z,0.00
2018-06-03T00:43:29.923Z,0.00
2018-06-03T00:44:29.880Z,0.00
2018-06-03T00:45:29.853Z,0.00
2018-06-03T00:46:29.824Z,0.00
2018-06-03T00:47:29.804Z,0.00
2018-06-03T00:48:29.737Z,0.00
2018-06-03T00:49:29.717Z,0.00
2018-06-03T00:50:29.669Z,0.00
2018-06-03T00:51:29.634Z,0.00
2018-06-03T00:52:29.636Z,0.00
2018-06-03T00:53:29.546Z,0.00
2018-06-03T00:54:29.501Z,0.00
2018-06-03T00:55:29.461Z,0.00
2018-06-03T00:56:29.428Z,0.00
2018-06-03T00:57:29.407Z,0.00
2018-06-03T00:58:29.383Z,0.00
2018-06-03T00:59:29.338Z,0.00
2018-06-03T01:00:29.312Z,0.00
2018-06-03T01:01:29.264Z,0.00
2018-06-03T01:02:29.216Z,0.00
2018-06-03T01:03:29.194Z,0.00
2018-06-03T01:04:29.135Z,0.00
2018-06-03T01:05:29.115Z,0.00
2018-06-03T01:06:29.067Z,0.00
2018-06-03T01:07:29.027Z,0.00
2018-06-03T01:08:29.006Z,0.00
2018-06-03T01:09:28.938Z,0.00
2018-06-03T01:10:28.905Z,0.00
2018-06-03T01:11:28.874Z,0.00
2018-06-03T01:12:28.830Z,0.00
2018-06-03T01:13:28.838Z,0.00
2018-06-03T01:14:28.757Z,0.00
2018-06-03T01:15:28.716Z,0.00
2018-06-03T01:16:28.701Z,0.00
2018-06-03T01:17:28.657Z,0.00
2018-06-03T01:18:28.631Z,0.00
2018-06-03T01:19:28.587Z,0.00
2018-06-03T01:20:28.533Z,0.00
2018-06-03T01:21:28.489Z,0.00
2018-06-03T01:22:28.460Z,0.00
2018-06-03T01:23:28.411Z,0.00
2018-06-03T01:24:28.422Z,0.00
2018-06-03T01:25:28.348Z,0.00
2018-06-03T01:26:28.293Z,0.00
2018-06-03T01:27:28.263Z,0.00
2018-06-03T01:28:28.226Z,0.00
2018-06-03T01:29:28.199Z,0.00
2018-06-03T01:30:28.162Z,0.00
2018-06-03T01:31:28.119Z,0.00
2018-06-03T01:32:28.089Z,0.00
2018-06-03T01:33:28.025Z,0.00
2018-06-03T01:34:28.043Z,0.00
2018-06-03T01:35:27.969Z,0.00
2018-06-03T01:36:27.914Z,0.00
2018-06-03T01:37:27.872Z,0.00
2018-06-03T01:38:27.855Z,0.00
2018-06-03T01:39:27.816Z,0.00
2018-06-03T01:40:27.778Z,0.00
2018-06-03T01:41:27.733Z,0.00
2018-06-03T01:42:27.720Z,0.00
2018-06-03T01:43:27.648Z,0.00
2018-06-03T01:44:27.633Z,0.00
2018-06-03T01:45:27.603Z,0.00
2018-06-03T01:46:27.554Z,0.00
2018-06-03T01:47:27.505Z,0.00
2018-06-03T01:48:27.476Z,0.00
2018-06-03T01:49:27.436Z,0.00
2018-06-03T01:50:27.427Z,0.00
2018-06-03T01:51:27.351Z,0.00
2018-06-03T01:52:27.317Z,0.00
2018-06-03T01:53:27.269Z,0.00
2018-06-03T01:54:27.243Z,0.00
2018-06-03T01:55:27.222Z,0.00
2018-06-03T01:56:27.183Z,0.00
2018-06-03T01:57:27.123Z,0.00
2018-06-03T01:58:27.090Z,0.00
2018-06-03T01:59:27.035Z,0.00
2018-06-03T02:00:26.999Z,0.00
2018-06-03T02:01:27.002Z,0.00
2018-06-03T02:02:26.947Z,0.00
2018-06-03T02:03:26.899Z,0.00
2018-06-03T02:04:26.880Z,0.00
2018-06-03T02:05:26.820Z,0.00
2018-06-03T02:06:26.799Z,0.00
2018-06-03T02:07:26.742Z,0.00
2018-06-03T02:08:26.719Z,0.00
2018-06-03T02:09:26.662Z,0.00
2018-06-03T02:10:26.623Z,0.00
2018-06-03T02:11:26.613Z,0.00
2018-06-03T02:12:26.560Z,0.00
2018-06-03T02:13:26.515Z,0.00
2018-06-03T02:14:26.478Z,0.00
2018-06-03T02:15:26.443Z,0.00
2018-06-03T02:16:26.403Z,0.00
2018-06-03T02:17:26.391Z,0.00
2018-06-03T02:18:26.322Z,0.00
2018-06-03T02:19:26.280Z,0.00
2018-06-03T02:20:26.244Z,0.00
2018-06-03T02:21:26.261Z,0.00
2018-06-03T02:22:26.169Z,0.00
2018-06-03T02:23:26.153Z,0.00
2018-06-03T02:24:26.125Z,0.00
2018-06-03T02:25:26.056Z,0.00
2018-06-03T02:26:26.021Z,0.00
2018-06-03T02:27:26.005Z,0.00
2018-06-03T02:28:25.968Z,0.00
2018-06-03T02:29:25.911Z,0.00
2018-06-03T02:30:25.881Z,0.00
2018-06-03T02:31:25.863Z,0.00
2018-06-03T02:32:25.821Z,0.00
2018-06-03T02:33:25.785Z,0.00
2018-06-03T02:34:25.731Z,0.00
2018-06-03T02:35:25.703Z,0.00
2018-06-03T02:36:25.649Z,0.00
2018-06-03T02:37:25.616Z,4.00
2018-06-03T02:38:25.576Z,4.00
2018-06-03T02:39:25.538Z,4.00
2018-06-03T02:40:25.479Z,0.00
2018-06-03T02:41:25.450Z,4.00
2018-06-03T02:42:25.414Z,4.00
2018-06-03T02:43:25.423Z,8.00
2018-06-03T02:44:25.338Z,4.00
2018-06-03T02:45:25.297Z,8.00
2018-06-03T02:46:25.272Z,8.00
2018-06-03T02:47:25.219Z,8.00
2018-06-03T02:48:25.207Z,8.00
2018-06-03T02:49:25.134Z,12.00
2018-06-03T02:50:25.109Z,12.00
2018-06-03T02:51:25.067Z,12.00
2018-06-03T02:52:25.044Z,16.00
2018-06-03T02:53:24.984Z,16.00
2018-06-03T02:54:24.993Z,20.00
2018-06-03T02:55:24.916Z,24.00
2018-06-03T02:56:24.871Z,24.00
2018-06-03T02:57:24.856Z,28.00
2018-06-03T02:58:24.790Z,32.00
2018-06-03T02:59:24.790Z,36.00
2018-06-03T03:00:35.407Z,40.00
2018-06-03T03:01:24.686Z,44.00
2018-06-03T03:02:24.630Z,48.00
2018-06-03T03:03:24.600Z,60.00
2018-06-03T03:04:24.609Z,64.00
2018-06-03T03:05:24.525Z,72.00
2018-06-03T03:06:24.494Z,80.00
2018-06-03T03:07:24.465Z,88.00
2018-06-03T03:08:24.403Z,96.00
2018-06-03T03:09:24.395Z,108.00
2018-06-03T03:10:24.329Z,116.00
2018-06-03T03:11:24.291Z,132.00
2018-06-03T03:12:24.264Z,144.00
2018-06-03T03:13:24.213Z,156.00
2018-06-03T03:14:24.177Z,172.00
2018-06-03T03:15:24.171Z,188.00
2018-06-03T03:16:24.102Z,208.00
2018-06-03T03:17:24.086Z,224.00
2018-06-03T03:18:24.057Z,240.00
2018-06-03T03:19:24.000Z,260.00
2018-06-03T03:20:23.969Z,280.00
2018-06-03T03:21:23.909Z,304.00
2018-06-03T03:22:23.859Z,324.00
2018-06-03T03:23:34.031Z,348.00
2018-06-03T03:24:23.804Z,372.00
2018-06-03T03:25:23.795Z,400.00
2018-06-03T03:26:23.706Z,428.00
2018-06-03T03:27:23.668Z,460.00
2018-06-03T03:28:23.672Z,492.00
2018-06-03T03:29:23.618Z,520.00
2018-06-03T03:30:23.563Z,552.00
2018-06-03T03:31:23.535Z,588.00
2018-06-03T03:32:23.480Z,624.00
2018-06-03T03:33:23.440Z,656.00
2018-06-03T03:34:23.429Z,692.00
2018-06-03T03:35:23.374Z,736.00
2018-06-03T03:36:23.355Z,784.00
2018-06-03T03:37:23.303Z,832.00
2018-06-03T03:38:23.250Z,884.00
2018-06-03T03:39:23.213Z,932.00
2018-06-03T03:40:23.167Z,980.00
2018-06-03T03:41:23.164Z,1032.00
2018-06-03T03:42:23.099Z,1084.00
2018-06-03T03:43:23.056Z,1136.00
2018-06-03T03:44:23.066Z,1188.00
2018-06-03T03:45:22.988Z,1240.00
2018-06-03T03:46:22.973Z,1292.00
2018-06-03T03:47:22.923Z,1344.00
2018-06-03T03:48:22.886Z,1404.00
2018-06-03T03:49:22.823Z,1460.00
2018-06-03T03:50:22.790Z,1520.00
2018-06-03T03:51:22.767Z,1584.00
2018-06-03T03:52:22.740Z,1656.00
2018-06-03T03:53:22.665Z,1724.00
2018-06-03T03:54:22.641Z,1792.00
2018-06-03T03:55:22.610Z,1864.00
2018-06-03T03:56:22.576Z,1940.00
2018-06-03T03:57:22.557Z,2020.00
2018-06-03T03:58:22.481Z,2108.00
2018-06-03T03:59:22.440Z,2208.00
2018-06-03T04:00:22.407Z,2320.00
2018-06-03T04:01:22.398Z,2440.00
2018-06-03T04:02:22.368Z,2564.00
2018-06-03T04:03:22.299Z,2708.00
2018-06-03T04:04:22.263Z,2872.00
2018-06-03T04:05:22.211Z,3056.00
2018-06-03T04:06:22.179Z,3248.00
2018-06-03T04:07:22.146Z,3444.00
2018-06-03T04:08:22.141Z,3628.00
2018-06-03T04:09:32.572Z,3800.00
2018-06-03T04:10:30.108Z,3968.00
2018-06-03T04:11:21.989Z,4124.00
2018-06-03T04:12:21.943Z,4264.00
2018-06-03T04:13:21.921Z,4392.00
2018-06-03T04:14:21.865Z,4512.00
2018-06-03T04:15:21.828Z,4624.00
2018-06-03T04:16:21.795Z,4732.00
2018-06-03T04:17:21.769Z,4844.00
2018-06-03T04:18:21.724Z,4952.00
2018-06-03T04:19:21.675Z,5052.00
2018-06-03T04:20:21.637Z,5144.00
2018-06-03T04:21:21.598Z,5196.00
2018-06-03T04:22:21.564Z,5204.00
2018-06-03T04:23:21.569Z,5196.00
2018-06-03T04:24:21.515Z,5196.00
2018-06-03T04:25:21.453Z,5200.00
2018-06-03T04:26:21.434Z,5216.00
2018-06-03T04:27:21.374Z,5212.00
2018-06-03T04:28:21.349Z,5236.00
2018-06-03T04:29:21.335Z,5280.00
2018-06-03T04:30:21.250Z,5348.00
2018-06-03T04:31:21.208Z,5416.00
2018-06-03T04:32:21.183Z,5488.00
2018-06-03T04:33:21.166Z,5580.00
2018-06-03T04:34:21.138Z,5704.00
2018-06-03T04:35:21.091Z,5884.00
2018-06-03T04:36:21.058Z,6052.00
2018-06-03T04:37:21.000Z,6212.00
2018-06-03T04:38:20.954Z,6352.00
2018-06-03T04:39:20.955Z,6488.00
2018-06-03T04:40:20.888Z,6600.00
2018-06-03T04:41:20.860Z,6656.00
2018-06-03T04:42:20.836Z,6708.00
2018-06-03T04:43:20.806Z,6756.00
2018-06-03T04:44:20.729Z,6832.00
2018-06-03T04:45:20.723Z,7024.00
2018-06-03T04:46:20.663Z,7112.00
2018-06-03T04:47:20.624Z,7244.00
2018-06-03T04:48:20.594Z,7284.00
2018-06-03T04:49:20.556Z,7256.00
2018-06-03T04:50:20.529Z,7224.00
2018-06-03T04:51:20.472Z,7308.00
2018-06-03T04:52:20.444Z,7496.00
2018-06-03T04:53:20.387Z,7744.00
2018-06-03T04:54:20.359Z,8032.00
2018-06-03T04:55:20.358Z,8244.00
2018-06-03T04:56:20.305Z,8316.00
2018-06-03T04:57:20.253Z,8584.00
2018-06-03T04:58:20.204Z,8828.00
2018-06-03T04:59:20.177Z,9068.00
2018-06-03T05:00:20.188Z,9336.00
2018-06-03T05:01:20.134Z,9620.00
2018-06-03T05:02:20.053Z,9756.00
2018-06-03T05:03:20.035Z,9784.00
2018-06-03T05:04:19.990Z,9624.00
2018-06-03T05:05:19.969Z,9552.00
2018-06-03T05:06:19.918Z,9260.00
2018-06-03T05:07:19.902Z,8824.00
2018-06-03T05:08:31.932Z,8348.00
2018-06-03T05:09:19.833Z,7844.00
2018-06-03T05:10:19.798Z,7468.00
2018-06-03T05:11:19.774Z,7544.00
2018-06-03T05:12:19.694Z,7540.00
2018-06-03T05:13:19.657Z,7016.00
2018-06-03T05:14:19.618Z,7184.00
2018-06-03T05:15:19.581Z,6856.00
2018-06-03T05:16:19.580Z,6388.00
2018-06-03T05:17:19.523Z,6352.00
2018-06-03T05:18:19.515Z,6428.00
2018-06-03T05:19:19.438Z,6704.00
2018-06-03T05:20:29.661Z,6804.00
2018-06-03T05:21:19.368Z,6968.00
2018-06-03T05:22:19.384Z,7272.00
2018-06-03T05:23:19.310Z,7556.00
2018-06-03T05:24:19.260Z,7792.00
2018-06-03T05:25:19.231Z,7988.00
2018-06-03T05:26:19.189Z,8108.00
2018-06-03T05:27:29.292Z,8180.00
2018-06-03T05:28:19.111Z,8196.00
2018-06-03T05:29:19.082Z,8196.00
2018-06-03T05:30:19.633Z,8176.00
2018-06-03T05:31:18.994Z,8136.00
2018-06-03T05:32:19.003Z,8080.00
2018-06-03T05:33:18.944Z,8008.00
2018-06-03T05:34:18.901Z,7916.00
2018-06-03T05:35:18.873Z,7856.00
2018-06-03T05:36:18.823Z,7856.00
2018-06-03T05:37:18.785Z,7916.00
2018-06-03T05:38:18.771Z,8048.00
2018-06-03T05:39:18.713Z,8228.00
2018-06-03T05:40:18.678Z,8436.00
2018-06-03T05:41:18.664Z,8688.00
2018-06-03T05:42:18.612Z,8948.00
2018-06-03T05:43:28.251Z,9296.00
2018-06-03T05:44:18.542Z,9720.00
2018-06-03T05:45:18.515Z,10236.00
2018-06-03T05:46:18.468Z,10788.00
2018-06-03T05:47:18.419Z,11276.00
2018-06-03T05:48:18.430Z,11696.00
2018-06-03T05:49:18.342Z,12036.00
2018-06-03T05:50:18.328Z,12256.00
2018-06-03T05:51:18.284Z,12448.00
2018-06-03T05:52:18.250Z,12584.00
2018-06-03T05:53:18.269Z,12712.00
2018-06-03T05:54:18.178Z,12816.00
2018-06-03T05:55:18.167Z,12896.00
2018-06-03T05:56:18.105Z,12860.00
2018-06-03T05:57:18.082Z,12840.00
2018-06-03T05:58:18.057Z,13044.00
2018-06-03T05:59:18.024Z,13364.00
2018-06-03T06:00:17.976Z,13596.00
2018-06-03T06:01:17.943Z,13824.00
2018-06-03T06:02:17.898Z,14016.00
2018-06-03T06:03:17.870Z,14156.00
2018-06-03T06:04:17.871Z,14240.00
2018-06-03T06:05:17.806Z,14204.00
2018-06-03T06:06:17.746Z,14176.00
2018-06-03T06:07:27.741Z,14264.00
2018-06-03T06:08:17.683Z,14372.00
2018-06-03T06:09:17.672Z,14356.00
2018-06-03T06:10:17.605Z,14304.00
2018-06-03T06:11:17.578Z,14284.00
2018-06-03T06:12:17.543Z,14324.00
2018-06-03T06:13:17.519Z,14344.00
2018-06-03T06:14:17.501Z,14412.00
2018-06-03T06:15:17.431Z,14420.00
2018-06-03T06:16:17.403Z,14196.00
2018-06-03T06:17:17.369Z,13676.00
2018-06-03T06:18:17.324Z,12876.00
2018-06-03T06:19:17.291Z,11792.00
2018-06-03T06:20:17.295Z,10640.00
2018-06-03T06:21:17.236Z,9760.00
2018-06-03T06:22:17.185Z,9324.00
2018-06-03T06:23:17.155Z,9308.00
2018-06-03T06:24:17.116Z,9576.00
2018-06-03T06:25:17.118Z,10028.00
2018-06-03T06:26:17.060Z,10552.00
2018-06-03T06:27:28.296Z,11140.00
2018-06-03T06:28:16.977Z,11840.00
2018-06-03T06:29:19.716Z,12660.00
2018-06-03T06:30:16.942Z,13684.00
2018-06-03T06:31:16.905Z,14812.00
2018-06-03T06:32:16.865Z,15968.00
2018-06-03T06:33:16.811Z,17184.00
2018-06-03T06:34:16.766Z,18176.00
2018-06-03T06:35:16.761Z,19136.00
2018-06-03T06:36:16.731Z,20128.00
2018-06-03T06:37:16.680Z,21152.00
2018-06-03T06:38:16.638Z,22304.00
2018-06-03T06:39:16.618Z,24896.00
2018-06-03T06:40:16.577Z,26048.00
2018-06-03T06:41:16.568Z,33664.00
2018-06-03T06:42:16.488Z,27936.00
2018-06-03T06:43:16.456Z,27360.00
2018-06-03T06:44:16.440Z,30752.00
2018-06-03T06:45:16.395Z,25472.00
2018-06-03T06:46:16.404Z,23968.00
2018-06-03T06:47:16.326Z,21184.00
2018-06-03T06:48:16.285Z,19520.00
2018-06-03T06:49:16.253Z,18976.00
2018-06-03T06:50:16.250Z,18752.00
2018-06-03T06:51:16.208Z,18816.00
2018-06-03T06:52:16.222Z,19456.00
2018-06-03T06:53:16.120Z,20416.00
2018-06-03T06:54:16.115Z,21440.00
2018-06-03T06:55:16.057Z,22656.00
2018-06-03T06:56:16.047Z,23872.00
2018-06-03T06:57:16.046Z,25376.00
2018-06-03T06:58:15.967Z,26176.00
2018-06-03T06:59:15.919Z,27136.00
2018-06-03T07:00:15.955Z,28320.00
2018-06-03T07:01:15.864Z,32608.00
2018-06-03T07:02:15.840Z,31328.00
2018-06-03T07:03:15.798Z,30240.00
2018-06-03T07:04:15.765Z,30816.00
2018-06-03T07:05:15.726Z,32928.00
2018-06-03T07:06:15.684Z,36512.00
2018-06-03T07:07:15.674Z,36608.00
2018-06-03T07:08:15.632Z,34336.00
2018-06-03T07:09:15.598Z,33728.00
2018-06-03T07:10:15.562Z,33984.00
2018-06-03T07:11:15.536Z,34080.00
2018-06-03T07:12:15.499Z,34432.00
2018-06-03T07:13:15.571Z,36800.00
2018-06-03T07:14:15.454Z,32416.00
2018-06-03T07:15:15.401Z,36160.00
2018-06-03T07:16:15.385Z,32736.00
2018-06-03T07:17:26.373Z,32544.00
2018-06-03T07:18:15.306Z,32704.00
2018-06-03T07:19:15.259Z,32544.00
2018-06-03T07:20:15.232Z,31744.00
2018-06-03T07:21:15.217Z,31456.00
2018-06-03T07:22:15.166Z,30848.00
2018-06-03T07:23:15.170Z,29984.00
2018-06-03T07:24:15.099Z,29088.00
2018-06-03T07:25:15.069Z,28704.00
2018-06-03T07:26:15.051Z,28576.00
2018-06-03T07:27:15.021Z,28256.00
2018-06-03T07:28:14.968Z,29088.00
2018-06-03T07:29:14.955Z,30048.00
2018-06-03T07:30:14.910Z,31328.00
2018-06-03T07:31:14.886Z,32160.00
2018-06-03T07:32:15.197Z,32384.00
2018-06-03T07:33:14.838Z,31584.00
2018-06-03T07:34:14.856Z,30912.00
2018-06-03T07:35:14.775Z,31104.00
2018-06-03T07:36:14.748Z,31744.00
2018-06-03T07:37:14.684Z,32608.00
2018-06-03T07:38:14.689Z,32288.00
2018-06-03T07:39:14.653Z,29728.00
2018-06-03T07:40:14.629Z,28096.00
2018-06-03T07:41:24.849Z,25184.00
2018-06-03T07:42:14.526Z,22912.00
2018-06-03T07:43:14.507Z,21408.00
2018-06-03T07:44:14.469Z,20064.00
2018-06-03T07:45:14.460Z,18272.00
2018-06-03T07:46:14.405Z,16992.00
2018-06-03T07:47:14.401Z,16320.00
2018-06-03T07:48:14.338Z,16028.00
2018-06-03T07:49:14.305Z,15880.00
2018-06-03T07:50:14.305Z,15720.00
2018-06-03T07:51:14.273Z,15520.00
2018-06-03T07:52:14.226Z,15380.00
2018-06-03T07:53:14.201Z,15348.00
2018-06-03T07:54:14.168Z,15236.00
2018-06-03T07:55:14.137Z,15004.00
2018-06-03T07:56:14.083Z,14560.00
2018-06-03T07:57:14.067Z,14360.00
2018-06-03T07:58:14.005Z,14508.00
2018-06-03T07:59:13.978Z,14660.00
2018-06-03T08:00:13.978Z,14352.00
2018-06-03T08:01:13.925Z,13740.00
2018-06-03T08:02:13.878Z,13016.00
2018-06-03T08:03:13.848Z,12180.00
2018-06-03T08:04:23.871Z,11288.00
2018-06-03T08:05:13.772Z,10652.00
2018-06-03T08:06:13.772Z,10508.00
2018-06-03T08:07:13.707Z,10724.00
2018-06-03T08:08:13.679Z,10772.00
2018-06-03T08:09:13.650Z,10384.00
2018-06-03T08:10:13.615Z,9836.00
2018-06-03T08:11:13.618Z,9500.00
2018-06-03T08:12:13.565Z,9544.00
2018-06-03T08:13:13.529Z,9800.00
2018-06-03T08:14:13.484Z,10268.00
2018-06-03T08:15:13.447Z,10964.00
2018-06-03T08:16:13.443Z,11544.00
2018-06-03T08:17:13.380Z,11888.00
2018-06-03T08:18:13.377Z,11932.00
2018-06-03T08:19:13.361Z,11668.00
2018-06-03T08:20:13.288Z,11372.00
2018-06-03T08:21:13.267Z,11220.00
2018-06-03T08:22:13.301Z,11200.00
2018-06-03T08:23:13.192Z,11380.00
2018-06-03T08:24:13.260Z,11404.00
2018-06-03T08:25:13.104Z,11940.00
2018-06-03T08:26:13.140Z,12456.00
2018-06-03T08:27:13.041Z,12716.00
2018-06-03T08:28:25.099Z,12848.00
2018-06-03T08:29:13.577Z,12908.00
2018-06-03T08:30:14.184Z,13200.00
2018-06-03T08:31:13.876Z,13608.00
2018-06-03T08:32:12.886Z,13904.00
2018-06-03T08:33:12.851Z,14240.00
2018-06-03T08:34:12.808Z,14776.00
2018-06-03T08:35:12.767Z,15388.00
2018-06-03T08:36:12.766Z,15960.00
2018-06-03T08:37:12.723Z,16428.00
2018-06-03T08:38:12.676Z,16712.00
2018-06-03T08:39:12.666Z,16836.00
2018-06-03T08:40:12.601Z,17028.00
2018-06-03T08:41:12.563Z,17600.00
2018-06-03T08:42:12.552Z,18112.00
2018-06-03T08:43:12.503Z,18464.00
2018-06-03T08:44:12.490Z,18688.00
2018-06-03T08:45:12.445Z,18816.00
2018-06-03T08:46:12.413Z,19072.00
2018-06-03T08:47:12.374Z,19360.00
2018-06-03T08:48:12.339Z,19488.00
2018-06-03T08:49:12.311Z,19520.00
2018-06-03T08:50:12.272Z,19424.00
2018-06-03T08:51:12.231Z,19264.00
2018-06-03T08:52:12.247Z,19168.00
2018-06-03T08:53:12.163Z,19328.00
2018-06-03T08:54:12.123Z,19520.00
2018-06-03T08:55:12.093Z,19648.00
2018-06-03T08:56:12.062Z,19456.00
2018-06-03T08:57:12.035Z,19008.00
2018-06-03T08:58:12.010Z,18784.00
2018-06-03T08:59:11.953Z,18816.00
2018-06-03T09:00:11.914Z,18976.00
2018-06-03T09:01:11.873Z,19136.00
2018-06-03T09:02:11.853Z,19360.00
2018-06-03T09:03:11.840Z,19872.00
2018-06-03T09:04:11.795Z,20544.00
2018-06-03T09:05:11.759Z,21376.00
2018-06-03T09:06:11.715Z,22144.00
2018-06-03T09:07:11.678Z,22720.00
2018-06-03T09:08:11.673Z,23232.00
2018-06-03T09:09:11.607Z,23616.00
2018-06-03T09:10:11.585Z,23712.00
2018-06-03T09:11:11.576Z,23520.00
2018-06-03T09:12:11.523Z,23232.00
2018-06-03T09:13:11.542Z,23488.00
2018-06-03T09:14:11.473Z,24096.00
2018-06-03T09:15:21.559Z,24672.00
2018-06-03T09:16:11.472Z,25184.00
2018-06-03T09:17:11.343Z,25376.00
2018-06-03T09:18:11.313Z,24928.00
2018-06-03T09:19:11.619Z,24576.00
2018-06-03T09:20:11.256Z,24608.00
2018-06-03T09:21:11.328Z,25728.00
2018-06-03T09:22:11.204Z,27776.00
2018-06-03T09:23:11.158Z,28768.00
2018-06-03T09:24:11.139Z,29920.00
2018-06-03T09:25:11.139Z,31840.00
2018-06-03T09:26:11.055Z,34016.00
2018-06-03T09:27:11.049Z,35744.00
2018-06-03T09:28:10.984Z,40896.00
2018-06-03T09:29:10.999Z,46304.00
2018-06-03T09:30:10.914Z,39168.00
2018-06-03T09:31:10.912Z,37344.00
2018-06-03T09:32:10.857Z,40000.00
2018-06-03T09:33:10.838Z,55168.00
2018-06-03T09:34:10.835Z,54912.00
2018-06-03T09:35:10.761Z,50848.00
2018-06-03T09:36:10.733Z,48608.00
2018-06-03T09:37:10.713Z,44832.00
2018-06-03T09:38:20.989Z,43968.00
2018-06-03T09:39:10.650Z,27744.00
2018-06-03T09:40:10.597Z,22528.00
2018-06-03T09:41:10.615Z,21280.00
2018-06-03T09:42:10.559Z,20928.00
2018-06-03T09:43:10.524Z,20320.00
2018-06-03T09:44:10.949Z,19264.00
2018-06-03T09:45:10.442Z,18624.00
2018-06-03T09:46:10.405Z,18016.00
2018-06-03T09:47:10.372Z,18016.00
2018-06-03T09:48:10.358Z,18656.00
2018-06-03T09:49:10.310Z,19712.00
2018-06-03T09:50:10.308Z,20192.00
2018-06-03T09:51:10.273Z,20224.00
2018-06-03T09:52:10.232Z,20032.00
2018-06-03T09:53:10.271Z,19584.00
2018-06-03T09:54:10.156Z,19136.00
2018-06-03T09:55:10.144Z,18912.00
2018-06-03T09:56:10.101Z,18816.00
2018-06-03T09:57:10.076Z,18816.00
2018-06-03T09:58:10.024Z,18816.00
2018-06-03T09:59:09.993Z,19296.00
2018-06-03T10:00:10.024Z,19936.00
2018-06-03T10:01:21.027Z,20576.00
2018-06-03T10:02:09.899Z,20992.00
2018-06-03T10:03:09.870Z,21216.00
2018-06-03T10:04:09.966Z,21472.00
2018-06-03T10:05:09.819Z,21856.00
2018-06-03T10:06:09.807Z,22240.00
2018-06-03T10:07:09.747Z,22496.00
2018-06-03T10:08:09.713Z,22720.00
2018-06-03T10:09:09.679Z,23040.00
2018-06-03T10:10:09.729Z,23360.00
2018-06-03T10:11:09.640Z,23648.00
2018-06-03T10:12:09.575Z,23904.00
2018-06-03T10:13:09.547Z,24256.00
2018-06-03T10:14:09.523Z,24736.00
2018-06-03T10:15:09.487Z,24928.00
2018-06-03T10:16:09.518Z,24608.00
2018-06-03T10:17:09.422Z,24960.00
2018-06-03T10:18:09.404Z,25536.00
2018-06-03T10:19:09.361Z,26496.00
2018-06-03T10:20:09.340Z,27840.00
2018-06-03T10:21:09.323Z,29632.00
2018-06-03T10:22:09.292Z,31584.00
2018-06-03T10:23:09.233Z,32928.00
2018-06-03T10:24:09.216Z,33664.00
2018-06-03T10:25:20.212Z,33824.00
2018-06-03T10:26:09.178Z,34144.00
2018-06-03T10:27:09.166Z,34432.00
2018-06-03T10:28:09.074Z,34880.00
2018-06-03T10:29:09.082Z,35424.00
2018-06-03T10:30:09.014Z,36160.00
2018-06-03T10:31:08.968Z,37152.00
2018-06-03T10:32:08.960Z,38496.00
2018-06-03T10:33:08.910Z,40064.00
2018-06-03T10:34:08.886Z,40992.00
2018-06-03T10:35:08.854Z,41536.00
2018-06-03T10:36:08.818Z,41696.00
2018-06-03T10:37:08.835Z,41792.00
2018-06-03T10:38:08.747Z,42144.00
2018-06-03T10:39:08.734Z,42976.00
2018-06-03T10:40:08.710Z,44224.00
2018-06-03T10:41:08.666Z,49120.00
2018-06-03T10:42:08.634Z,64864.00
2018-06-03T10:43:08.657Z,57952.00
2018-06-03T10:44:08.573Z,48160.00
2018-06-03T10:45:08.537Z,46528.00
2018-06-03T10:46:08.525Z,44640.00
2018-06-03T10:47:08.513Z,42688.00
2018-06-03T10:48:08.507Z,40960.00
2018-06-03T10:49:19.709Z,39264.00
2018-06-03T10:50:08.386Z,38176.00
2018-06-03T10:51:08.354Z,38176.00
2018-06-03T10:52:08.333Z,38240.00
2018-06-03T10:53:08.323Z,37888.00
2018-06-03T10:54:08.260Z,37952.00
2018-06-03T10:55:08.228Z,38208.00
2018-06-03T10:56:08.212Z,38496.00
2018-06-03T10:57:08.180Z,38784.00
2018-06-03T10:58:08.184Z,39200.00
2018-06-03T10:59:08.145Z,39424.00
2018-06-03T11:00:08.102Z,39520.00
2018-06-03T11:01:08.058Z,40672.00
2018-06-03T11:02:08.023Z,40544.00
2018-06-03T11:03:07.996Z,39296.00
2018-06-03T11:04:08.003Z,39040.00
2018-06-03T11:05:07.949Z,38976.00
2018-06-03T11:06:07.906Z,40288.00
2018-06-03T11:07:07.879Z,44288.00
2018-06-03T11:08:07.860Z,54144.00
2018-06-03T11:09:07.840Z,54624.00
2018-06-03T11:10:07.793Z,66304.00
2018-06-03T11:11:07.767Z,71744.00
2018-06-03T11:12:07.742Z,61376.00
2018-06-03T11:13:07.700Z,66368.00
2018-06-03T11:14:07.705Z,58624.00
2018-06-03T11:15:07.660Z,60352.00
2018-06-03T11:16:07.633Z,59136.00
2018-06-03T11:17:07.606Z,52864.00
2018-06-03T11:18:07.562Z,57856.00
2018-06-03T11:19:07.530Z,49536.00
2018-06-03T11:20:07.528Z,48896.00
2018-06-03T11:21:07.470Z,50656.00
2018-06-03T11:22:07.443Z,46112.00
2018-06-03T11:23:07.433Z,42400.00
2018-06-03T11:24:07.404Z,68896.00
2018-06-03T11:25:07.388Z,70144.00
2018-06-03T11:26:07.349Z,70816.00
2018-06-03T11:27:07.309Z,69952.00
2018-06-03T11:28:07.294Z,66592.00
2018-06-03T11:29:07.269Z,55168.00
2018-06-03T11:30:07.265Z,52896.00
2018-06-03T11:31:07.216Z,49504.00
2018-06-03T11:32:07.181Z,49632.00
2018-06-03T11:33:07.163Z,45216.00
2018-06-03T11:34:07.141Z,44576.00
2018-06-03T11:35:07.094Z,44864.00
2018-06-03T11:36:07.098Z,39552.00
2018-06-03T11:37:07.050Z,38432.00
2018-06-03T11:38:07.045Z,36448.00
2018-06-03T11:39:07.003Z,45888.00
2018-06-03T11:40:06.966Z,33920.00
2018-06-03T11:41:06.972Z,32512.00
2018-06-03T11:42:06.918Z,32480.00
2018-06-03T11:43:06.894Z,33664.00
2018-06-03T11:44:06.877Z,44224.00
2018-06-03T11:45:06.826Z,62752.00
2018-06-03T11:46:06.827Z,28992.00
2018-06-03T11:47:06.776Z,26752.00
2018-06-03T11:48:06.758Z,24672.00
2018-06-03T11:49:06.731Z,22624.00
2018-06-03T11:50:06.699Z,21056.00
2018-06-03T11:51:06.699Z,19744.00
2018-06-03T11:52:06.633Z,19200.00
2018-06-03T11:53:06.605Z,19040.00
2018-06-03T11:54:06.579Z,18848.00
2018-06-03T11:55:06.552Z,18688.00
2018-06-03T11:56:06.548Z,18464.00
2018-06-03T11:57:06.495Z,18080.00
2018-06-03T11:58:06.459Z,17440.00
2018-06-03T11:59:06.455Z,16768.00
2018-06-03T12:00:06.406Z,16204.00
2018-06-03T12:01:06.409Z,16328.00
2018-06-03T12:02:06.357Z,16704.00
2018-06-03T12:03:06.332Z,16832.00
2018-06-03T12:04:06.278Z,16960.00
2018-06-03T12:05:06.248Z,17120.00
2018-06-03T12:06:06.213Z,17504.00
2018-06-03T12:07:06.206Z,18112.00
2018-06-03T12:08:06.164Z,18848.00
2018-06-03T12:09:06.128Z,19392.00
2018-06-03T12:10:06.096Z,20064.00
2018-06-03T12:11:06.070Z,21056.00